createdAt,value
2023-12-09T00:02:45.102Z,97531.00
2023-12-09T00:06:48.329Z,97533.00
2023-12-09T00:10:49.520Z,97535.00
2023-12-09T00:14:50.598Z,97537.00
2023-12-09T00:18:51.995Z,97550.00
2023-12-09T00:22:53.045Z,97542.00
2023-12-09T00:26:54.279Z,97546.00
2023-12-09T00:30:55.552Z,97549.00
2023-12-09T00:34:56.589Z,97542.00
2023-12-09T00:38:58.271Z,97550.00
2023-12-09T00:42:59.267Z,97545.00
2023-12-09T00:47:00.297Z,97555.00
2023-12-09T00:51:01.352Z,97550.00
2023-12-09T00:55:02.564Z,97561.00
2023-12-09T00:59:04.738Z,97562.00
2023-12-09T01:03:05.847Z,97574.00
2023-12-09T01:07:06.839Z,97568.00
2023-12-09T01:11:08.160Z,97574.00
2023-12-09T01:15:09.610Z,97570.00
2023-12-09T01:19:10.630Z,97570.00
2023-12-09T01:23:12.071Z,97582.00
2023-12-09T01:27:13.138Z,97574.00
2023-12-09T01:31:14.303Z,97581.00
2023-12-09T01:35:15.610Z,97587.00
2023-12-09T01:39:16.804Z,97585.00
2023-12-09T01:43:17.917Z,97606.00
2023-12-09T01:47:19.351Z,97598.00
2023-12-09T01:51:20.682Z,97604.00
2023-12-09T01:55:22.370Z,97593.00
2023-12-09T01:59:23.783Z,97592.00
2023-12-09T02:03:25.171Z,97564.00
2023-12-09T02:07:26.239Z,97584.00
2023-12-09T02:11:37.430Z,97582.00
2023-12-09T02:15:44.522Z,97572.00
2023-12-09T02:19:46.556Z,97556.00
2023-12-09T02:23:47.560Z,97541.00
2023-12-09T02:27:55.522Z,97533.00
2023-12-09T02:32:00.496Z,97529.00
2023-12-09T02:36:04.041Z,97518.00
2023-12-09T02:40:08.664Z,97519.00
2023-12-09T02:44:10.094Z,97527.00
2023-12-09T02:48:11.387Z,97532.00
2023-12-09T02:52:12.781Z,97514.00
2023-12-09T02:56:13.848Z,97511.00
2023-12-09T03:00:15.255Z,97476.00
2023-12-09T03:04:16.608Z,97481.00
2023-12-09T03:08:17.803Z,97475.00
2023-12-09T03:12:19.019Z,97468.00
2023-12-09T03:16:20.249Z,97468.00
2023-12-09T03:20:21.618Z,97471.00
2023-12-09T03:24:22.840Z,97466.00
2023-12-09T03:28:23.913Z,97461.00
2023-12-09T03:32:25.685Z,97463.00
2023-12-09T03:36:27.112Z,97462.00
2023-12-09T03:40:28.370Z,97464.00
2023-12-09T03:44:31.259Z,97468.00
2023-12-09T03:48:32.841Z,97471.00
2023-12-09T03:52:36.064Z,97473.00
2023-12-09T03:56:37.410Z,97463.00
2023-12-09T04:00:40.197Z,97468.00
2023-12-09T04:04:41.599Z,97476.00
2023-12-09T04:08:42.844Z,97474.00
2023-12-09T04:12:44.098Z,97482.00
2023-12-09T04:16:45.067Z,97463.00
2023-12-09T04:20:46.762Z,97462.00
2023-12-09T04:24:47.800Z,97464.00
2023-12-09T04:28:48.965Z,97459.00
2023-12-09T04:32:50.335Z,97450.00
2023-12-09T04:36:51.473Z,97445.00
2023-12-09T04:40:52.729Z,97443.00
2023-12-09T04:44:54.291Z,97440.00
2023-12-09T04:48:55.853Z,97436.00
2023-12-09T04:52:57.093Z,97445.00
2023-12-09T04:56:58.428Z,97433.00
2023-12-09T05:00:59.604Z,97424.00
2023-12-09T05:05:00.716Z,97437.00
2023-12-09T05:09:02.398Z,97433.00
2023-12-09T05:13:03.526Z,97436.00
2023-12-09T05:17:04.647Z,97430.00
2023-12-09T05:21:06.340Z,97434.00
2023-12-09T05:25:08.016Z,97456.00
2023-12-09T05:29:09.216Z,97439.00
2023-12-09T05:33:10.377Z,97435.00
2023-12-09T05:37:11.604Z,97421.00
2023-12-09T05:41:12.742Z,97435.00
2023-12-09T05:45:14.037Z,97420.00
2023-12-09T05:49:15.666Z,97422.00
2023-12-09T05:53:16.888Z,97417.00
2023-12-09T05:57:18.406Z,97395.00
2023-12-09T06:01:19.595Z,97395.00
2023-12-09T06:05:20.727Z,97403.00
2023-12-09T06:09:21.897Z,97412.00
2023-12-09T06:13:23.034Z,97264.00
2023-12-09T06:17:24.282Z,97387.00
2023-12-09T06:21:26.794Z,97255.00
2023-12-09T06:25:27.828Z,97390.00
2023-12-09T06:29:29.036Z,97378.00
2023-12-09T06:33:30.224Z,97387.00
2023-12-09T06:37:31.362Z,97385.00
2023-12-09T06:41:32.537Z,97382.00
2023-12-09T06:45:33.602Z,97389.00
2023-12-09T06:49:34.793Z,97381.00
2023-12-09T06:53:39.512Z,97380.00
2023-12-09T06:57:40.518Z,97384.00
2023-12-09T07:01:43.556Z,97382.00
2023-12-09T07:05:44.815Z,97389.00
2023-12-09T07:09:46.037Z,97396.00
2023-12-09T07:13:47.789Z,97390.00
2023-12-09T07:17:48.956Z,97398.00
2023-12-09T07:21:51.545Z,97411.00
2023-12-09T07:25:52.576Z,97402.00
2023-12-09T07:29:53.808Z,97403.00
2023-12-09T07:33:55.134Z,97391.00
2023-12-09T07:37:56.148Z,97387.00
2023-12-09T07:41:57.284Z,97390.00
2023-12-09T07:45:58.210Z,97386.00
2023-12-09T07:49:59.385Z,97373.00
2023-12-09T07:54:00.675Z,97369.00
2023-12-09T07:58:01.719Z,97367.00
2023-12-09T08:02:02.910Z,97384.00
2023-12-09T08:06:04.582Z,97370.00
2023-12-09T08:10:06.974Z,97366.00
2023-12-09T08:14:10.915Z,97356.00
2023-12-09T08:18:11.416Z,97340.00
2023-12-09T08:22:13.821Z,97346.00
2023-12-09T08:26:18.184Z,97356.00
2023-12-09T08:30:19.199Z,97345.00
2023-12-09T08:34:20.661Z,97349.00
2023-12-09T08:38:21.866Z,97332.00
2023-12-09T08:42:23.199Z,97325.00
2023-12-09T08:46:24.276Z,97313.00
2023-12-09T08:50:25.915Z,97322.00
2023-12-09T08:54:27.421Z,97311.00
2023-12-09T08:58:29.091Z,97291.00
2023-12-09T09:02:31.952Z,97298.00
2023-12-09T09:06:33.117Z,97292.00
2023-12-09T09:10:34.378Z,97274.00
2023-12-09T09:14:36.693Z,97274.00
2023-12-09T09:18:37.978Z,97264.00
2023-12-09T09:22:39.200Z,97269.00
2023-12-09T09:26:40.191Z,97269.00
2023-12-09T09:30:41.484Z,97271.00
2023-12-09T09:34:43.349Z,97271.00
2023-12-09T09:38:44.832Z,97290.00
2023-12-09T09:42:57.426Z,97280.00
2023-12-09T09:47:00.334Z,97285.00
2023-12-09T09:51:03.794Z,97277.00
2023-12-09T09:55:09.137Z,97281.00
2023-12-09T09:59:11.292Z,97265.00
2023-12-09T10:03:12.339Z,97271.00
2023-12-09T10:07:14.745Z,97261.00
2023-12-09T10:11:16.147Z,97242.00
2023-12-09T10:15:17.398Z,97245.00
2023-12-09T10:19:20.626Z,97230.00
2023-12-09T10:23:22.687Z,97204.00
2023-12-09T10:27:24.888Z,97192.00
2023-12-09T10:31:27.580Z,97188.00
2023-12-09T10:35:28.898Z,97175.00
2023-12-09T10:39:30.228Z,97164.00
2023-12-09T10:43:31.226Z,97152.00
2023-12-09T10:47:32.616Z,97146.00
2023-12-09T10:51:33.850Z,97121.00
2023-12-09T10:55:35.559Z,97097.00
2023-12-09T10:59:37.083Z,97094.00
2023-12-09T11:03:39.196Z,97077.00
2023-12-09T11:07:41.890Z,97068.00
2023-12-09T11:11:43.051Z,97054.00
2023-12-09T11:15:44.113Z,97050.00
2023-12-09T11:19:45.422Z,97038.00
2023-12-09T11:23:54.058Z,97025.00
2023-12-09T11:27:57.146Z,97013.00
2023-12-09T11:31:58.312Z,97009.00
2023-12-09T11:36:00.189Z,97016.00
2023-12-09T11:40:02.545Z,96989.00
2023-12-09T11:44:04.968Z,96968.00
2023-12-09T11:48:06.507Z,96957.00
2023-12-09T11:52:08.663Z,96958.00
2023-12-09T11:56:09.712Z,96968.00
2023-12-09T12:00:14.432Z,96967.00
2023-12-09T12:04:15.477Z,96960.00
2023-12-09T12:08:16.750Z,96950.00
2023-12-09T12:12:18.827Z,96928.00
2023-12-09T12:16:20.426Z,96927.00
2023-12-09T12:20:21.431Z,96900.00
2023-12-09T12:24:22.493Z,96891.00
2023-12-09T12:28:24.845Z,96878.00
2023-12-09T12:32:26.330Z,96870.00
2023-12-09T12:36:27.681Z,96845.00
2023-12-09T12:40:31.153Z,96835.00
2023-12-09T12:44:35.711Z,96823.00
2023-12-09T12:48:37.268Z,96832.00
2023-12-09T12:52:39.418Z,96812.00
2023-12-09T12:56:40.748Z,96802.00
2023-12-09T13:00:42.294Z,96810.00
2023-12-09T13:04:43.540Z,96800.00
2023-12-09T13:08:45.863Z,96786.00
2023-12-09T13:12:47.043Z,96762.00
2023-12-09T13:16:48.387Z,96757.00
2023-12-09T13:20:50.975Z,96746.00
2023-12-09T13:24:52.270Z,96734.00
2023-12-09T13:28:53.330Z,96720.00
2023-12-09T13:32:54.715Z,96695.00
2023-12-09T13:36:56.066Z,96677.00
2023-12-09T13:40:57.275Z,96666.00
2023-12-09T13:44:58.814Z,96641.00
2023-12-09T13:49:00.104Z,96629.00
2023-12-09T13:53:01.743Z,96621.00
2023-12-09T13:57:03.229Z,96592.00
2023-12-09T14:01:05.558Z,96586.00
2023-12-09T14:05:08.910Z,96580.00
2023-12-09T14:09:10.246Z,96580.00
2023-12-09T14:13:11.601Z,96569.00
2023-12-09T14:17:13.107Z,96537.00
2023-12-09T14:21:14.546Z,96514.00
2023-12-09T14:25:15.718Z,96499.00
2023-12-09T14:29:16.864Z,96473.00
2023-12-09T14:33:17.969Z,96474.00
2023-12-09T14:37:20.186Z,96469.00
2023-12-09T14:41:21.501Z,96461.00
2023-12-09T14:45:22.598Z,96439.00
2023-12-09T14:49:24.266Z,96435.00
2023-12-09T14:53:25.377Z,96421.00
2023-12-09T14:57:27.618Z,96419.00
2023-12-09T15:01:28.732Z,96406.00
2023-12-09T15:05:29.762Z,96411.00
2023-12-09T15:09:31.655Z,96398.00
2023-12-09T15:13:32.703Z,96386.00
2023-12-09T15:17:36.085Z,96385.00
2023-12-09T15:21:37.009Z,96403.00
2023-12-09T15:25:38.591Z,96377.00
2023-12-09T15:29:39.761Z,96376.00
2023-12-09T15:33:40.997Z,96371.00
2023-12-09T15:37:43.853Z,96334.00
2023-12-09T15:41:44.907Z,96297.00
2023-12-09T15:45:46.053Z,96283.00
2023-12-09T15:49:47.332Z,96261.00
2023-12-09T15:53:48.846Z,96233.00
2023-12-09T15:57:50.119Z,96222.00
2023-12-09T16:01:53.109Z,96193.00
2023-12-09T16:05:54.591Z,96161.00
2023-12-09T16:09:58.219Z,96151.00
2023-12-09T16:13:58.561Z,96132.00
2023-12-09T16:17:59.858Z,96138.00
2023-12-09T16:22:02.337Z,96114.00
2023-12-09T16:26:05.005Z,96136.00
2023-12-09T16:30:07.175Z,96143.00
2023-12-09T16:34:08.829Z,96140.00
2023-12-09T16:38:11.058Z,96128.00
2023-12-09T16:42:12.363Z,96104.00
2023-12-09T16:46:14.004Z,96075.00
2023-12-09T16:50:15.779Z,96051.00
2023-12-09T16:54:16.814Z,96050.00
2023-12-09T16:58:19.747Z,96041.00
2023-12-09T17:02:20.754Z,96036.00
2023-12-09T17:06:22.310Z,96037.00
2023-12-09T17:10:23.631Z,96028.00
2023-12-09T17:14:25.167Z,96026.00
2023-12-09T17:18:27.587Z,96001.00
2023-12-09T17:22:30.699Z,95985.00
2023-12-09T17:26:33.897Z,95981.00
2023-12-09T17:30:35.420Z,95963.00
2023-12-09T17:34:36.502Z,95983.00
2023-12-09T17:38:37.816Z,95981.00
2023-12-09T17:42:38.837Z,95953.00
2023-12-09T17:46:40.059Z,95964.00
2023-12-09T17:50:41.225Z,95953.00
2023-12-09T17:54:42.281Z,95946.00
2023-12-09T17:58:43.597Z,95894.00
2023-12-09T18:02:44.779Z,95904.00
2023-12-09T18:06:45.967Z,95895.00
2023-12-09T18:10:47.270Z,95890.00
2023-12-09T18:14:48.296Z,95850.00
2023-12-09T18:18:49.539Z,95872.00
2023-12-09T18:22:52.129Z,95881.00
2023-12-09T18:26:53.649Z,95842.00
2023-12-09T18:30:55.728Z,95823.00
2023-12-09T18:34:58.364Z,95800.00
2023-12-09T18:38:59.526Z,95791.00
2023-12-09T18:43:00.653Z,95768.00
2023-12-09T18:47:02.192Z,95769.00
2023-12-09T18:51:04.207Z,95785.00
2023-12-09T18:55:07.238Z,95802.00
2023-12-09T18:59:08.256Z,95797.00
2023-12-09T19:03:09.331Z,95814.00
2023-12-09T19:07:11.500Z,95805.00
2023-12-09T19:11:12.649Z,95820.00
2023-12-09T19:15:14.028Z,95813.00
2023-12-09T19:19:15.850Z,95798.00
2023-12-09T19:23:17.651Z,95816.00
2023-12-09T19:27:18.978Z,95797.00
2023-12-09T19:31:20.114Z,95816.00
2023-12-09T19:35:22.374Z,95819.00
2023-12-09T19:39:23.662Z,95820.00
2023-12-09T19:43:24.796Z,95823.00
2023-12-09T19:47:26.546Z,95811.00
2023-12-09T19:51:27.747Z,95813.00
2023-12-09T19:55:28.924Z,95846.00
2023-12-09T19:59:31.440Z,95839.00
2023-12-09T20:03:32.702Z,95823.00
2023-12-09T20:07:34.046Z,95824.00
2023-12-09T20:11:35.092Z,95842.00
2023-12-09T20:15:36.412Z,95828.00
2023-12-09T20:19:38.183Z,95842.00
2023-12-09T20:23:39.798Z,95841.00
2023-12-09T20:27:41.187Z,95845.00
2023-12-09T20:31:44.475Z,95853.00
2023-12-09T20:35:45.680Z,95858.00
2023-12-09T20:39:46.810Z,95873.00
2023-12-09T20:43:50.751Z,95872.00
2023-12-09T20:47:51.173Z,95853.00
2023-12-09T20:51:52.317Z,95870.00
2023-12-09T20:55:53.329Z,95875.00
2023-12-09T20:59:54.335Z,95888.00
2023-12-09T21:03:55.662Z,95891.00
2023-12-09T21:07:56.978Z,95900.00
2023-12-09T21:11:59.898Z,95905.00
2023-12-09T21:16:00.972Z,95912.00
2023-12-09T21:20:02.998Z,95920.00
2023-12-09T21:24:04.404Z,95928.00
2023-12-09T21:28:08.666Z,95939.00
2023-12-09T21:32:09.520Z,95939.00
2023-12-09T21:36:18.183Z,95951.00
2023-12-09T21:40:19.199Z,95954.00
2023-12-09T21:44:20.362Z,95982.00
2023-12-09T21:48:22.344Z,95972.00
2023-12-09T21:52:23.523Z,96002.00
2023-12-09T21:56:25.842Z,95996.00
2023-12-09T22:00:26.902Z,95990.00
2023-12-09T22:04:28.112Z,96011.00
2023-12-09T22:08:29.304Z,95992.00
2023-12-09T22:12:30.896Z,96020.00
2023-12-09T22:16:32.064Z,96046.00
2023-12-09T22:20:33.452Z,96028.00
2023-12-09T22:24:35.758Z,96016.00
2023-12-09T22:28:38.781Z,96034.00
2023-12-09T22:32:40.026Z,96051.00
2023-12-09T22:36:41.251Z,96059.00
2023-12-09T22:40:42.517Z,96078.00
2023-12-09T22:44:44.098Z,96084.00
2023-12-09T22:48:45.372Z,95972.00
2023-12-09T22:52:46.567Z,96088.00
2023-12-09T22:56:47.877Z,96086.00
2023-12-09T23:00:49.030Z,96096.00
2023-12-09T23:04:50.326Z,96111.00
2023-12-09T23:08:52.126Z,96125.00
2023-12-09T23:12:53.187Z,96140.00
2023-12-09T23:16:54.433Z,96137.00
2023-12-09T23:20:57.542Z,96138.00
2023-12-09T23:24:58.736Z,96153.00
2023-12-09T23:29:00.772Z,96181.00
2023-12-09T23:33:04.264Z,96193.00
2023-12-09T23:37:05.408Z,96205.00
2023-12-09T23:41:14.783Z,96227.00
2023-12-09T23:45:15.999Z,96238.00
2023-12-09T23:49:17.208Z,96250.00
2023-12-09T23:53:19.131Z,96267.00
2023-12-09T23:57:20.200Z,96298.00
